KCEW

Bob Sikes Airport

Crestview, Florida, USA
METAR KCEW 210353Z AUTO 00000KT 9SM CLR 23/22 A3009 RMK AO2 SLP188 T02330222
Observed Flight Rules
Aug-21 @ 03:53 UTC (19 minutes ago) Visual Flight Rules
Visibility Clouds
9 miles
  • Clear skies
Temperatures Readings
Current 23°C / 73°F
Dewpoint 22°C / 72°F
Humidity 94%
Altimeter 30.09" Hg
Pressure 1018.8 hPa
Elevation 55
METAR KCEW 210353Z AUTO 00000KT 9SM CLR 23/22 A3009 RMK AO2 SLP188 T02330222
Observed Flight Rules
Aug-21 @ 03:53 UTC
(19 minutes ago)
VFR
Clouds
  • Clear skies
Temperature Dewpoint
23°C / 73°F 22°C / 72°F
Humidity Altimeter Pressure
94% 30.09" Hg 1018.8 hPa